sensor_id;sensor_type;location;lat;lon;timestamp;pressure;altitude;pressure_sealevel;temperature;humidity
49473;BME280;67434;50.956;6.918;2023-04-08T00:00:23;101684.72;;;8.26;85.43
49473;BME280;67434;50.956;6.918;2023-04-08T00:03:09;101689.53;;;8.18;85.80
49473;BME280;67434;50.956;6.918;2023-04-08T00:05:54;101684.78;;;8.20;86.05
49473;BME280;67434;50.956;6.918;2023-04-08T00:08:40;101691.66;;;8.09;86.77
49473;BME280;67434;50.956;6.918;2023-04-08T00:11:26;101688.31;;;8.20;85.85
49473;BME280;67434;50.956;6.918;2023-04-08T00:14:12;101695.34;;;8.21;86.21
49473;BME280;67434;50.956;6.918;2023-04-08T00:16:57;101693.81;;;8.32;85.69
49473;BME280;67434;50.956;6.918;2023-04-08T00:19:43;101693.25;;;8.23;85.72
49473;BME280;67434;50.956;6.918;2023-04-08T00:22:29;101689.75;;;8.16;85.98
49473;BME280;67434;50.956;6.918;2023-04-08T00:25:15;101692.31;;;8.04;86.84
49473;BME280;67434;50.956;6.918;2023-04-08T00:28:01;101686.28;;;8.09;86.17
49473;BME280;67434;50.956;6.918;2023-04-08T00:30:46;101696.28;;;8.02;86.66
49473;BME280;67434;50.956;6.918;2023-04-08T00:33:32;101696.88;;;8.04;86.44
49473;BME280;67434;50.956;6.918;2023-04-08T00:36:18;101694.31;;;8.15;85.88
49473;BME280;67434;50.956;6.918;2023-04-08T00:39:04;101697.44;;;8.12;86.34
49473;BME280;67434;50.956;6.918;2023-04-08T00:41:51;101693.28;;;8.16;86.19
49473;BME280;67434;50.956;6.918;2023-04-08T00:44:36;101696.19;;;8.15;85.87
49473;BME280;67434;50.956;6.918;2023-04-08T00:47:22;101692.50;;;8.09;86.36
49473;BME280;67434;50.956;6.918;2023-04-08T00:50:08;101695.34;;;8.14;85.99
49473;BME280;67434;50.956;6.918;2023-04-08T00:52:55;101690.78;;;8.22;85.74
49473;BME280;67434;50.956;6.918;2023-04-08T00:55:41;101694.47;;;8.27;85.47
49473;BME280;67434;50.956;6.918;2023-04-08T00:58:27;101694.09;;;8.17;85.92
49473;BME280;67434;50.956;6.918;2023-04-08T01:01:21;101698.31;;;8.06;86.68
49473;BME280;67434;50.956;6.918;2023-04-08T01:04:32;101704.34;;;8.02;86.92
49473;BME280;67434;50.956;6.918;2023-04-08T01:07:28;101699.75;;;8.09;86.29
49473;BME280;67434;50.956;6.918;2023-04-08T01:10:26;101712.59;;;8.07;86.82
49473;BME280;67434;50.956;6.918;2023-04-08T01:13:17;101709.25;;;8.11;86.63
49473;BME280;67434;50.956;6.918;2023-04-08T01:16:03;101700.13;;;8.12;86.66
49473;BME280;67434;50.956;6.918;2023-04-08T01:18:51;101702.19;;;8.17;86.61
49473;BME280;67434;50.956;6.918;2023-04-08T01:21:37;101704.84;;;8.24;86.08
49473;BME280;67434;50.956;6.918;2023-04-08T01:24:27;101707.53;;;8.24;86.00
49473;BME280;67434;50.956;6.918;2023-04-08T01:27:15;101705.91;;;8.23;86.14
49473;BME280;67434;50.956;6.918;2023-04-08T01:30:03;101699.09;;;8.13;86.81
49473;BME280;67434;50.956;6.918;2023-04-08T01:32:53;101698.88;;;8.15;86.60
49473;BME280;67434;50.956;6.918;2023-04-08T01:35:40;101712.13;;;8.16;86.60
49473;BME280;67434;50.956;6.918;2023-04-08T01:38:27;101698.28;;;8.13;86.54
49473;BME280;67434;50.956;6.918;2023-04-08T01:41:14;101710.13;;;8.05;87.35
49473;BME280;67434;50.956;6.918;2023-04-08T01:44:03;101707.25;;;8.00;87.08
49473;BME280;67434;50.956;6.918;2023-04-08T01:46:49;101704.91;;;8.10;87.08
49473;BME280;67434;50.956;6.918;2023-04-08T01:49:36;101712.00;;;8.05;87.26
49473;BME280;67434;50.956;6.918;2023-04-08T01:52:22;101714.03;;;8.09;86.84
49473;BME280;67434;50.956;6.918;2023-04-08T01:55:10;101710.13;;;8.05;87.32
49473;BME280;67434;50.956;6.918;2023-04-08T01:57:58;101715.69;;;8.10;87.17
49473;BME280;67434;50.956;6.918;2023-04-08T02:00:45;101710.56;;;8.02;87.14
49473;BME280;67434;50.956;6.918;2023-04-08T02:03:32;101708.03;;;8.07;86.95
49473;BME280;67434;50.956;6.918;2023-04-08T02:06:18;101720.72;;;8.00;87.12
49473;BME280;67434;50.956;6.918;2023-04-08T02:09:04;101713.47;;;8.01;87.06
49473;BME280;67434;50.956;6.918;2023-04-08T02:11:50;101714.44;;;8.13;86.78
49473;BME280;67434;50.956;6.918;2023-04-08T02:14:36;101717.31;;;8.18;86.40
49473;BME280;67434;50.956;6.918;2023-04-08T02:17:27;101714.88;;;8.10;87.03
49473;BME280;67434;50.956;6.918;2023-04-08T02:20:26;101712.38;;;8.08;87.43
49473;BME280;67434;50.956;6.918;2023-04-08T02:23:19;101718.59;;;8.09;87.22
49473;BME280;67434;50.956;6.918;2023-04-08T02:26:12;101720.06;;;8.05;87.28
49473;BME280;67434;50.956;6.918;2023-04-08T02:28:59;101719.41;;;8.09;87.38
49473;BME280;67434;50.956;6.918;2023-04-08T02:31:46;101717.22;;;8.00;87.95
49473;BME280;67434;50.956;6.918;2023-04-08T02:34:33;101725.25;;;8.06;88.13
49473;BME280;67434;50.956;6.918;2023-04-08T02:37:20;101725.06;;;8.01;87.99
49473;BME280;67434;50.956;6.918;2023-04-08T02:40:26;101722.59;;;8.00;88.34
49473;BME280;67434;50.956;6.918;2023-04-08T02:43:12;101720.72;;;8.00;88.25
49473;BME280;67434;50.956;6.918;2023-04-08T02:45:59;101721.75;;;7.99;88.29
49473;BME280;67434;50.956;6.918;2023-04-08T02:48:47;101725.69;;;8.03;88.15
49473;BME280;67434;50.956;6.918;2023-04-08T02:51:33;101716.38;;;7.99;88.54
49473;BME280;67434;50.956;6.918;2023-04-08T02:54:18;101722.81;;;7.98;88.63
49473;BME280;67434;50.956;6.918;2023-04-08T02:57:04;101723.63;;;7.99;88.66
49473;BME280;67434;50.956;6.918;2023-04-08T02:59:50;101725.53;;;7.92;89.43
49473;BME280;67434;50.956;6.918;2023-04-08T03:02:36;101731.31;;;7.95;89.26
49473;BME280;67434;50.956;6.918;2023-04-08T03:05:21;101728.00;;;7.93;89.28
49473;BME280;67434;50.956;6.918;2023-04-08T03:08:07;101722.19;;;7.96;89.19
49473;BME280;67434;50.956;6.918;2023-04-08T03:10:53;101727.22;;;7.86;89.64
49473;BME280;67434;50.956;6.918;2023-04-08T03:13:38;101730.34;;;7.83;89.64
49473;BME280;67434;50.956;6.918;2023-04-08T03:16:24;101727.22;;;7.86;89.31
49473;BME280;67434;50.956;6.918;2023-04-08T03:19:10;101726.78;;;7.89;89.71
49473;BME280;67434;50.956;6.918;2023-04-08T03:21:55;101728.41;;;7.97;89.12
49473;BME280;67434;50.956;6.918;2023-04-08T03:24:41;101728.63;;;7.95;89.22
49473;BME280;67434;50.956;6.918;2023-04-08T03:27:27;101728.28;;;7.85;89.70
49473;BME280;67434;50.956;6.918;2023-04-08T03:30:13;101732.81;;;7.84;89.81
49473;BME280;67434;50.956;6.918;2023-04-08T03:32:58;101732.78;;;7.91;89.48
49473;BME280;67434;50.956;6.918;2023-04-08T03:35:44;101735.91;;;7.88;89.61
49473;BME280;67434;50.956;6.918;2023-04-08T03:38:30;101732.81;;;7.84;90.19
49473;BME280;67434;50.956;6.918;2023-04-08T03:41:16;101739.44;;;7.89;89.88
49473;BME280;67434;50.956;6.918;2023-04-08T03:44:01;101738.81;;;7.87;89.83
49473;BME280;67434;50.956;6.918;2023-04-08T03:46:47;101736.47;;;7.97;89.54
49473;BME280;67434;50.956;6.918;2023-04-08T03:49:33;101743.16;;;7.88;89.87
49473;BME280;67434;50.956;6.918;2023-04-08T03:52:18;101742.78;;;7.84;90.29
49473;BME280;67434;50.956;6.918;2023-04-08T03:55:04;101746.50;;;7.83;90.55
49473;BME280;67434;50.956;6.918;2023-04-08T03:57:50;101742.78;;;7.84;90.26
49473;BME280;67434;50.956;6.918;2023-04-08T04:00:36;101738.22;;;7.78;90.69
49473;BME280;67434;50.956;6.918;2023-04-08T04:03:21;101743.38;;;7.79;90.54
49473;BME280;67434;50.956;6.918;2023-04-08T04:06:08;101739.03;;;7.78;90.61
49473;BME280;67434;50.956;6.918;2023-04-08T04:08:54;101739.03;;;7.78;91.07
49473;BME280;67434;50.956;6.918;2023-04-08T04:11:40;101739.19;;;7.97;90.49
49473;BME280;67434;50.956;6.918;2023-04-08T04:14:25;101735.28;;;7.93;90.24
49473;BME280;67434;50.956;6.918;2023-04-08T04:17:11;101738.19;;;7.91;90.50
49473;BME280;67434;50.956;6.918;2023-04-08T04:19:56;101745.03;;;7.87;90.36
49473;BME280;67434;50.956;6.918;2023-04-08T04:22:42;101743.56;;;7.91;90.62
49473;BME280;67434;50.956;6.918;2023-04-08T04:25:28;101742.69;;;7.97;90.27
49473;BME280;67434;50.956;6.918;2023-04-08T04:28:13;101745.81;;;7.94;90.20
49473;BME280;67434;50.956;6.918;2023-04-08T04:30:59;101746.69;;;7.88;90.67
49473;BME280;67434;50.956;6.918;2023-04-08T04:33:45;101750.22;;;7.82;91.43
49473;BME280;67434;50.956;6.918;2023-04-08T04:36:31;101751.03;;;7.89;90.78
49473;BME280;67434;50.956;6.918;2023-04-08T04:39:17;101754.13;;;7.93;90.49
49473;BME280;67434;50.956;6.918;2023-04-08T04:42:02;101759.72;;;7.91;90.69
49473;BME280;67434;50.956;6.918;2023-04-08T04:44:49;101764.28;;;7.91;90.72
49473;BME280;67434;50.956;6.918;2023-04-08T04:47:34;101765.13;;;7.84;91.10
49473;BME280;67434;50.956;6.918;2023-04-08T04:50:20;101758.91;;;7.84;91.07
49473;BME280;67434;50.956;6.918;2023-04-08T04:53:06;101760.97;;;7.89;91.19
49473;BME280;67434;50.956;6.918;2023-04-08T04:55:51;101768.41;;;7.93;90.74
49473;BME280;67434;50.956;6.918;2023-04-08T04:58:37;101763.41;;;7.97;90.74
49473;BME280;67434;50.956;6.918;2023-04-08T05:01:23;101760.16;;;7.88;90.58
49473;BME280;67434;50.956;6.918;2023-04-08T05:04:08;101764.72;;;7.81;90.88
49473;BME280;67434;50.956;6.918;2023-04-08T05:06:54;101753.53;;;7.77;91.68
49473;BME280;67434;50.956;6.918;2023-04-08T05:09:40;101766.16;;;7.77;91.48
49473;BME280;67434;50.956;6.918;2023-04-08T05:12:25;101774.03;;;7.78;91.41
49473;BME280;67434;50.956;6.918;2023-04-08T05:15:11;101773.00;;;7.79;91.04
49473;BME280;67434;50.956;6.918;2023-04-08T05:17:57;101773.63;;;7.81;90.86
49473;BME280;67434;50.956;6.918;2023-04-08T05:20:42;101775.91;;;7.84;90.13
49473;BME280;67434;50.956;6.918;2023-04-08T05:23:28;101771.09;;;7.93;89.22
49473;BME280;67434;50.956;6.918;2023-04-08T05:26:14;101778.31;;;7.99;89.19
49473;BME280;67434;50.956;6.918;2023-04-08T05:28:59;101783.22;;;8.09;88.42
49473;BME280;67434;50.956;6.918;2023-04-08T05:31:45;101782.88;;;7.99;88.71
49473;BME280;67434;50.956;6.918;2023-04-08T05:34:31;101789.13;;;7.86;89.48
49473;BME280;67434;50.956;6.918;2023-04-08T05:37:16;101791.59;;;7.94;88.95
49473;BME280;67434;50.956;6.918;2023-04-08T05:40:02;101793.28;;;7.89;88.69
49473;BME280;67434;50.956;6.918;2023-04-08T05:42:48;101797.00;;;7.88;88.73
49473;BME280;67434;50.956;6.918;2023-04-08T05:45:35;101797.84;;;7.88;88.92
49473;BME280;67434;50.956;6.918;2023-04-08T05:48:21;101803.63;;;7.78;89.64
49473;BME280;67434;50.956;6.918;2023-04-08T05:51:12;101804.50;;;7.72;89.96
49473;BME280;67434;50.956;6.918;2023-04-08T05:53:58;101816.06;;;7.79;89.09
49473;BME280;67434;50.956;6.918;2023-04-08T05:56:43;101830.38;;;7.67;90.06
49473;BME280;67434;50.956;6.918;2023-04-08T05:59:30;101833.28;;;7.65;90.22
49473;BME280;67434;50.956;6.918;2023-04-08T06:02:16;101826.88;;;7.66;90.32
49473;BME280;67434;50.956;6.918;2023-04-08T06:05:02;101821.88;;;7.70;90.62
49473;BME280;67434;50.956;6.918;2023-04-08T06:07:48;101840.09;;;7.74;89.78
49473;BME280;67434;50.956;6.918;2023-04-08T06:10:33;101838.00;;;7.76;89.85
49473;BME280;67434;50.956;6.918;2023-04-08T06:13:19;101835.53;;;7.81;89.81
49473;BME280;67434;50.956;6.918;2023-04-08T06:16:13;101833.88;;;7.87;89.49
49473;BME280;67434;50.956;6.918;2023-04-08T06:18:59;101829.72;;;7.91;89.47
49473;BME280;67434;50.956;6.918;2023-04-08T06:21:45;101840.47;;;7.91;89.69
49473;BME280;67434;50.956;6.918;2023-04-08T06:24:31;101851.66;;;7.95;87.68
49473;BME280;67434;50.956;6.918;2023-04-08T06:27:17;101844.16;;;8.03;87.67
49473;BME280;67434;50.956;6.918;2023-04-08T06:30:03;101848.25;;;8.12;86.73
49473;BME280;67434;50.956;6.918;2023-04-08T06:32:48;101855.28;;;8.20;86.51
49473;BME280;67434;50.956;6.918;2023-04-08T06:35:34;101843.44;;;8.34;86.05
49473;BME280;67434;50.956;6.918;2023-04-08T06:38:21;101851.44;;;8.48;85.16
49473;BME280;67434;50.956;6.918;2023-04-08T06:41:07;101848.91;;;8.59;84.37
49473;BME280;67434;50.956;6.918;2023-04-08T06:43:53;101849.69;;;8.66;83.78
49473;BME280;67434;50.956;6.918;2023-04-08T06:46:38;101849.22;;;8.76;83.43
49473;BME280;67434;50.956;6.918;2023-04-08T06:49:24;101847.50;;;8.82;84.13
49473;BME280;67434;50.956;6.918;2023-04-08T06:52:11;101854.91;;;8.93;83.44
49473;BME280;67434;50.956;6.918;2023-04-08T06:54:57;101851.69;;;9.09;82.82
49473;BME280;67434;50.956;6.918;2023-04-08T06:57:42;101851.69;;;9.09;81.83
49473;BME280;67434;50.956;6.918;2023-04-08T07:00:28;101854.22;;;9.04;81.85
49473;BME280;67434;50.956;6.918;2023-04-08T07:03:14;101857.66;;;9.11;81.57
49473;BME280;67434;50.956;6.918;2023-04-08T07:06:00;101858.66;;;9.17;80.82
49473;BME280;67434;50.956;6.918;2023-04-08T07:08:46;101861.75;;;9.20;80.76
49473;BME280;67434;50.956;6.918;2023-04-08T07:11:32;101866.25;;;9.26;81.13
49473;BME280;67434;50.956;6.918;2023-04-08T07:14:19;101871.00;;;9.31;80.65
49473;BME280;67434;50.956;6.918;2023-04-08T07:17:05;101864.34;;;9.33;80.98
49473;BME280;67434;50.956;6.918;2023-04-08T07:19:51;101870.38;;;9.29;81.18
49473;BME280;67434;50.956;6.918;2023-04-08T07:22:37;101879.34;;;9.29;81.80
49473;BME280;67434;50.956;6.918;2023-04-08T07:25:22;101874.41;;;9.45;81.33
49473;BME280;67434;50.956;6.918;2023-04-08T07:28:08;101878.91;;;9.51;81.72
49473;BME280;67434;50.956;6.918;2023-04-08T07:30:53;101875.34;;;9.57;80.90
49473;BME280;67434;50.956;6.918;2023-04-08T07:33:39;101877.03;;;9.76;79.75
49473;BME280;67434;50.956;6.918;2023-04-08T07:36:25;101880.69;;;10.00;78.70
49473;BME280;67434;50.956;6.918;2023-04-08T07:39:11;101881.69;;;10.06;78.71
49473;BME280;67434;50.956;6.918;2023-04-08T07:41:56;101881.75;;;10.17;78.85
49473;BME280;67434;50.956;6.918;2023-04-08T07:44:43;101882.97;;;10.40;77.94
49473;BME280;67434;50.956;6.918;2023-04-08T07:47:28;101893.41;;;10.54;76.27
49473;BME280;67434;50.956;6.918;2023-04-08T07:50:14;101889.72;;;10.49;76.79
49473;BME280;67434;50.956;6.918;2023-04-08T07:52:59;101897.56;;;10.69;75.98
49473;BME280;67434;50.956;6.918;2023-04-08T07:55:45;101894.09;;;10.80;75.82
49473;BME280;67434;50.956;6.918;2023-04-08T07:58:31;101897.56;;;10.69;74.93
49473;BME280;67434;50.956;6.918;2023-04-08T08:01:21;101895.03;;;10.55;74.69
49473;BME280;67434;50.956;6.918;2023-04-08T08:04:07;101906.03;;;10.42;76.76
49473;BME280;67434;50.956;6.918;2023-04-08T08:06:52;101898.28;;;10.46;77.25
49473;BME280;67434;50.956;6.918;2023-04-08T08:09:38;101907.88;;;10.60;76.25
49473;BME280;67434;50.956;6.918;2023-04-08T08:12:24;101923.38;;;10.34;76.88
49473;BME280;67434;50.956;6.918;2023-04-08T08:15:10;101920.94;;;10.08;77.50
49473;BME280;67434;50.956;6.918;2023-04-08T08:17:56;101919.16;;;10.20;77.52
49473;BME280;67434;50.956;6.918;2023-04-08T08:20:41;101921.09;;;10.13;77.35
49473;BME280;67434;50.956;6.918;2023-04-08T08:23:27;101932.06;;;10.18;76.99
49473;BME280;67434;50.956;6.918;2023-04-08T08:26:12;101924.94;;;10.06;76.36
49473;BME280;67434;50.956;6.918;2023-04-08T08:28:58;101928.78;;;9.91;76.96
49473;BME280;67434;50.956;6.918;2023-04-08T08:31:44;101932.63;;;9.84;77.14
49473;BME280;67434;50.956;6.918;2023-04-08T08:34:30;101938.94;;;9.96;77.53
49473;BME280;67434;50.956;6.918;2023-04-08T08:37:16;101936.28;;;9.89;76.89
49473;BME280;67434;50.956;6.918;2023-04-08T08:40:01;101924.97;;;9.81;77.19
49473;BME280;67434;50.956;6.918;2023-04-08T08:42:51;101932.41;;;9.60;77.94
49473;BME280;67434;50.956;6.918;2023-04-08T08:45:40;101938.59;;;9.67;78.99
49473;BME280;67434;50.956;6.918;2023-04-08T08:48:26;101943.28;;;9.97;78.50
49473;BME280;67434;50.956;6.918;2023-04-08T08:51:12;101941.69;;;9.89;78.13
49473;BME280;67434;50.956;6.918;2023-04-08T08:54:01;101944.88;;;10.05;77.96
49473;BME280;67434;50.956;6.918;2023-04-08T08:56:47;101947.69;;;10.34;76.49
49473;BME280;67434;50.956;6.918;2023-04-08T08:59:33;101947.84;;;10.40;75.62
49473;BME280;67434;50.956;6.918;2023-04-08T09:02:29;101942.66;;;10.56;75.09
49473;BME280;67434;50.956;6.918;2023-04-08T09:05:16;101944.44;;;10.81;74.75
49473;BME280;67434;50.956;6.918;2023-04-08T09:08:01;101946.03;;;11.00;74.46
49473;BME280;67434;50.956;6.918;2023-04-08T09:10:47;101949.16;;;11.15;72.96
49473;BME280;67434;50.956;6.918;2023-04-08T09:13:34;101945.28;;;10.93;72.97
49473;BME280;67434;50.956;6.918;2023-04-08T09:16:23;101948.00;;;10.93;72.73
49473;BME280;67434;50.956;6.918;2023-04-08T09:19:10;101949.25;;;10.60;73.44
49473;BME280;67434;50.956;6.918;2023-04-08T09:22:09;101948.53;;;10.53;74.40
49473;BME280;67434;50.956;6.918;2023-04-08T09:24:54;101955.75;;;10.41;73.48
49473;BME280;67434;50.956;6.918;2023-04-08T09:27:40;101949.88;;;10.44;73.28
49473;BME280;67434;50.956;6.918;2023-04-08T09:30:26;101954.03;;;10.77;72.64
49473;BME280;67434;50.956;6.918;2023-04-08T09:33:12;101953.19;;;10.76;72.20
49473;BME280;67434;50.956;6.918;2023-04-08T09:35:58;101955.88;;;10.94;72.19
49473;BME280;67434;50.956;6.918;2023-04-08T09:38:44;101958.13;;;11.27;70.09
49473;BME280;67434;50.956;6.918;2023-04-08T09:41:33;101963.13;;;11.54;69.55
49473;BME280;67434;50.956;6.918;2023-04-08T09:44:20;101964.94;;;11.30;68.36
49473;BME280;67434;50.956;6.918;2023-04-08T09:47:17;101967.53;;;11.37;68.22
49473;BME280;67434;50.956;6.918;2023-04-08T09:50:05;101975.41;;;11.26;69.10
49473;BME280;67434;50.956;6.918;2023-04-08T09:53:06;101969.19;;;11.38;68.68
49473;BME280;67434;50.956;6.918;2023-04-08T09:55:55;101972.31;;;11.76;67.37
49473;BME280;67434;50.956;6.918;2023-04-08T09:58:51;101970.66;;;11.75;67.59
49473;BME280;67434;50.956;6.918;2023-04-08T10:01:38;101970.00;;;12.15;64.32
49473;BME280;67434;50.956;6.918;2023-04-08T10:04:25;101976.25;;;12.27;64.86
49473;BME280;67434;50.956;6.918;2023-04-08T10:07:13;101967.88;;;11.82;65.28
49473;BME280;67434;50.956;6.918;2023-04-08T10:09:59;101959.63;;;11.88;64.79
49473;BME280;67434;50.956;6.918;2023-04-08T10:12:47;101964.06;;;11.71;65.66
49473;BME280;67434;50.956;6.918;2023-04-08T10:15:34;101972.78;;;11.73;65.75
49473;BME280;67434;50.956;6.918;2023-04-08T10:18:29;101966.81;;;12.06;65.85
49473;BME280;67434;50.956;6.918;2023-04-08T10:21:36;101962.84;;;12.61;63.95
49473;BME280;67434;50.956;6.918;2023-04-08T10:24:22;101960.78;;;12.39;64.26
49473;BME280;67434;50.956;6.918;2023-04-08T10:27:39;101965.91;;;12.64;64.47
49473;BME280;67434;50.956;6.918;2023-04-08T10:33:18;101977.91;;;11.93;66.06
49473;BME280;67434;50.956;6.918;2023-04-08T10:36:11;101963.31;;;11.41;68.20
49473;BME280;67434;50.956;6.918;2023-04-08T10:38:58;101965.03;;;11.65;67.98
49473;BME280;67434;50.956;6.918;2023-04-08T10:41:48;101966.47;;;12.03;65.25
49473;BME280;67434;50.956;6.918;2023-04-08T10:44:34;101969.53;;;12.30;64.67
49473;BME280;67434;50.956;6.918;2023-04-08T10:47:24;101968.00;;;12.34;63.31
49473;BME280;67434;50.956;6.918;2023-04-08T10:50:14;101970.00;;;11.80;66.07
49473;BME280;67434;50.956;6.918;2023-04-08T10:53:00;101963.13;;;11.77;67.25
49473;BME280;67434;50.956;6.918;2023-04-08T10:55:46;101964.47;;;12.10;64.46
49473;BME280;67434;50.956;6.918;2023-04-08T10:58:33;101968.34;;;12.14;64.72
49473;BME280;67434;50.956;6.918;2023-04-08T11:01:19;101971.31;;;12.12;64.36
49473;BME280;67434;50.956;6.918;2023-04-08T11:04:16;101963.97;;;12.36;62.18
49473;BME280;67434;50.956;6.918;2023-04-08T11:07:07;101953.69;;;12.50;59.93
49473;BME280;67434;50.956;6.918;2023-04-08T11:09:53;101945.38;;;12.28;60.27
49473;BME280;67434;50.956;6.918;2023-04-08T11:12:40;101952.06;;;12.37;60.91
49473;BME280;67434;50.956;6.918;2023-04-08T11:15:28;101957.50;;;12.14;61.48
49473;BME280;67434;50.956;6.918;2023-04-08T11:18:14;101957.13;;;11.75;61.99
49473;BME280;67434;50.956;6.918;2023-04-08T11:21:00;101954.69;;;11.85;62.55
49473;BME280;67434;50.956;6.918;2023-04-08T11:23:48;101956.00;;;11.95;61.97
49473;BME280;67434;50.956;6.918;2023-04-08T11:26:35;101951.06;;;11.92;61.82
49473;BME280;67434;50.956;6.918;2023-04-08T11:29:21;101957.75;;;12.12;61.34
49473;BME280;67434;50.956;6.918;2023-04-08T11:32:07;101954.16;;;12.47;60.19
49473;BME280;67434;50.956;6.918;2023-04-08T11:34:53;101957.53;;;12.02;61.90
49473;BME280;67434;50.956;6.918;2023-04-08T11:37:40;101948.91;;;12.17;61.76
49473;BME280;67434;50.956;6.918;2023-04-08T11:40:27;101947.03;;;11.82;62.12
49473;BME280;67434;50.956;6.918;2023-04-08T11:43:13;101940.91;;;11.87;62.05
49473;BME280;67434;50.956;6.918;2023-04-08T11:46:08;101948.19;;;11.63;63.58
49473;BME280;67434;50.956;6.918;2023-04-08T11:48:58;101943.47;;;11.58;63.19
49473;BME280;67434;50.956;6.918;2023-04-08T11:51:55;101945.47;;;11.63;63.02
49473;BME280;67434;50.956;6.918;2023-04-08T11:54:42;101941.81;;;11.69;62.99
49473;BME280;67434;50.956;6.918;2023-04-08T11:57:28;101939.59;;;11.78;62.34
49473;BME280;67434;50.956;6.918;2023-04-08T12:00:17;101944.00;;;11.91;62.68
49473;BME280;67434;50.956;6.918;2023-04-08T12:03:03;101945.28;;;12.00;61.74
49473;BME280;67434;50.956;6.918;2023-04-08T12:05:50;101941.28;;;11.91;61.16
49473;BME280;67434;50.956;6.918;2023-04-08T12:08:36;101941.63;;;11.94;61.07
49473;BME280;67434;50.956;6.918;2023-04-08T12:11:22;101946.56;;;12.09;61.00
49473;BME280;67434;50.956;6.918;2023-04-08T12:14:08;101944.44;;;12.11;61.04
49473;BME280;67434;50.956;6.918;2023-04-08T12:16:54;101944.16;;;11.77;60.31
49473;BME280;67434;50.956;6.918;2023-04-08T12:19:40;101943.59;;;11.87;60.03
49473;BME280;67434;50.956;6.918;2023-04-08T12:22:26;101949.94;;;11.57;61.84
49473;BME280;67434;50.956;6.918;2023-04-08T12:25:11;101955.47;;;11.74;62.10
49473;BME280;67434;50.956;6.918;2023-04-08T12:27:57;101945.63;;;11.92;61.65
49473;BME280;67434;50.956;6.918;2023-04-08T12:30:42;101956.56;;;12.08;61.23
49473;BME280;67434;50.956;6.918;2023-04-08T12:33:28;101963.88;;;12.19;59.93
49473;BME280;67434;50.956;6.918;2023-04-08T12:36:14;101954.09;;;12.18;60.76
49473;BME280;67434;50.956;6.918;2023-04-08T12:39:01;101948.44;;;12.32;61.15
49473;BME280;67434;50.956;6.918;2023-04-08T12:41:47;101955.13;;;12.41;60.71
49473;BME280;67434;50.956;6.918;2023-04-08T12:44:32;101957.47;;;12.26;60.64
49473;BME280;67434;50.956;6.918;2023-04-08T12:47:18;101954.66;;;11.74;61.99
49473;BME280;67434;50.956;6.918;2023-04-08T12:50:04;101961.25;;;11.54;62.81
49473;BME280;67434;50.956;6.918;2023-04-08T12:52:50;101953.06;;;11.43;62.85
49473;BME280;67434;50.956;6.918;2023-04-08T12:55:35;101952.88;;;11.56;62.61
49473;BME280;67434;50.956;6.918;2023-04-08T12:58:22;101948.41;;;11.73;62.39
49473;BME280;67434;50.956;6.918;2023-04-08T13:01:09;101943.03;;;11.97;62.00
49473;BME280;67434;50.956;6.918;2023-04-08T13:03:56;101933.47;;;12.29;60.79
49473;BME280;67434;50.956;6.918;2023-04-08T13:06:42;101940.31;;;12.08;60.87
49473;BME280;67434;50.956;6.918;2023-04-08T13:09:28;101939.47;;;12.31;60.08
49473;BME280;67434;50.956;6.918;2023-04-08T13:12:15;101949.03;;;12.62;60.41
49473;BME280;67434;50.956;6.918;2023-04-08T13:15:00;101949.28;;;12.61;59.95
49473;BME280;67434;50.956;6.918;2023-04-08T13:17:46;101943.59;;;12.74;60.35
49473;BME280;67434;50.956;6.918;2023-04-08T13:20:31;101944.06;;;12.71;60.00
49473;BME280;67434;50.956;6.918;2023-04-08T13:23:18;101944.00;;;13.11;59.83
49473;BME280;67434;50.956;6.918;2023-04-08T13:26:03;101935.28;;;13.54;57.48
49473;BME280;67434;50.956;6.918;2023-04-08T13:28:49;101927.34;;;13.86;55.53
49473;BME280;67434;50.956;6.918;2023-04-08T13:31:37;101937.53;;;14.34;54.14
49473;BME280;67434;50.956;6.918;2023-04-08T13:34:22;101932.41;;;13.77;53.74
49473;BME280;67434;50.956;6.918;2023-04-08T13:37:08;101929.00;;;13.70;53.54
49473;BME280;67434;50.956;6.918;2023-04-08T13:39:54;101926.28;;;13.37;52.46
49473;BME280;67434;50.956;6.918;2023-04-08T13:42:39;101933.03;;;13.18;52.74
49473;BME280;67434;50.956;6.918;2023-04-08T13:45:25;101930.63;;;12.93;53.36
49473;BME280;67434;50.956;6.918;2023-04-08T13:48:11;101926.09;;;13.10;53.39
49473;BME280;67434;50.956;6.918;2023-04-08T13:50:58;101928.38;;;13.01;52.67
49473;BME280;67434;50.956;6.918;2023-04-08T13:53:43;101934.22;;;12.81;53.71
49473;BME280;67434;50.956;6.918;2023-04-08T13:56:29;101935.09;;;12.99;53.83
49473;BME280;67434;50.956;6.918;2023-04-08T13:59:14;101932.94;;;12.84;53.86
49473;BME280;67434;50.956;6.918;2023-04-08T14:02:00;101944.44;;;12.63;53.71
49473;BME280;67434;50.956;6.918;2023-04-08T14:04:46;101930.94;;;12.39;54.86
49473;BME280;67434;50.956;6.918;2023-04-08T14:07:32;101925.38;;;12.46;53.84
49473;BME280;67434;50.956;6.918;2023-04-08T14:10:17;101923.66;;;12.40;53.98
49473;BME280;67434;50.956;6.918;2023-04-08T14:13:03;101935.97;;;11.96;54.93
49473;BME280;67434;50.956;6.918;2023-04-08T14:15:49;101932.88;;;12.27;54.33
49473;BME280;67434;50.956;6.918;2023-04-08T14:18:34;101935.09;;;12.30;53.81
49473;BME280;67434;50.956;6.918;2023-04-08T14:21:20;101924.84;;;12.20;54.86
49473;BME280;67434;50.956;6.918;2023-04-08T14:24:06;101924.03;;;12.32;54.11
49473;BME280;67434;50.956;6.918;2023-04-08T14:26:52;101921.06;;;12.21;54.63
49473;BME280;67434;50.956;6.918;2023-04-08T14:29:38;101928.06;;;12.58;53.85
49473;BME280;67434;50.956;6.918;2023-04-08T14:32:24;101926.22;;;12.46;53.71
49473;BME280;67434;50.956;6.918;2023-04-08T14:35:09;101925.81;;;12.66;52.81
49473;BME280;67434;50.956;6.918;2023-04-08T14:37:55;101922.88;;;12.84;52.21
49473;BME280;67434;50.956;6.918;2023-04-08T14:40:41;101924.72;;;13.24;51.59